Time;durP1;ratioP1;P1;durP2;ratioP2;P2;SDS_P1;SDS_P2;PMS_P1;PMS_P2;Temp;Humidity;BMP_temperature;BMP_pressure;BME280_temperature;BME280_humidity;BME280_pressure;Samples;Min_cycle;Max_cycle;Signal;HPM_P1;HPM_P2
2021/05/04 00:03:18;;;;;;;5.57;3.42;;;;;;;6.26;50.08;97645.94;10442346;28;20065;-76
2021/05/04 00:08:39;;;;;;;7.85;3.15;;;;;;;6.18;49.60;97634.94;10455740;28;20404;-76
2021/05/04 00:13:59;;;;;;;6.28;3.45;;;;;;;6.11;49.54;97635.00;10442239;28;20099;-76
2021/05/04 00:19:19;;;;;;;5.45;3.35;;;;;;;5.97;50.71;97618.66;10428409;28;20040;-76
2021/05/04 00:24:40;;;;;;;7.07;3.35;;;;;;;5.86;51.06;97604.50;10428531;28;20041;-76
2021/05/04 00:30:01;;;;;;;5.55;3.25;;;;;;;5.76;50.96;97609.94;10441584;28;20049;-77
2021/05/04 00:35:21;;;;;;;5.22;3.17;;;;;;;5.69;51.74;97588.56;10456471;28;20037;-75
2021/05/04 00:40:42;;;;;;;7.70;3.80;;;;;;;5.68;51.32;97584.31;10436028;28;20045;-76
2021/05/04 00:46:02;;;;;;;9.80;4.00;;;;;;;5.65;52.08;97585.47;10449371;28;20431;-75
2021/05/04 00:51:23;;;;;;;6.97;3.65;;;;;;;5.56;52.59;97577.78;10449355;28;20052;-76
2021/05/04 00:56:44;;;;;;;5.40;3.63;;;;;;;5.49;52.34;97556.41;10434936;28;20124;-76
2021/05/04 01:02:05;;;;;;;6.13;3.67;;;;;;;5.47;52.43;97554.94;10448877;28;20082;-76
2021/05/04 01:07:28;;;;;;;5.93;3.72;;;;;;;5.46;52.79;97550.72;10420960;28;20052;-76
2021/05/04 01:12:48;;;;;;;5.43;3.47;;;;;;;5.50;52.68;97546.81;10449020;28;20439;-76
2021/05/04 01:18:09;;;;;;;6.07;3.42;;;;;;;5.45;53.69;97538.16;10434784;28;20373;-77
2021/05/04 01:23:30;;;;;;;5.88;3.55;;;;;;;5.45;53.38;97540.94;10434233;28;20056;-77
2021/05/04 01:28:50;;;;;;;6.22;3.63;;;;;;;5.45;54.16;97529.13;10461747;28;20045;-75
2021/05/04 01:34:12;;;;;;;8.48;3.65;;;;;;;5.43;53.61;97531.75;10433768;28;20045;-76
2021/05/04 01:39:47;;;;;;;7.15;3.67;;;;;;;5.41;54.30;97515.69;10447688;28;20487;-76
2021/05/04 01:45:09;;;;;;;8.13;3.78;;;;;;;5.40;55.39;97510.69;10447915;28;20045;-76
2021/05/04 01:50:30;;;;;;;6.13;3.72;;;;;;;5.39;55.56;97512.75;10446135;28;20044;-77
2021/05/04 01:55:51;;;;;;;6.32;3.38;;;;;;;5.37;54.92;97511.84;10446808;28;20049;-77
2021/05/04 02:01:11;;;;;;;7.13;4.10;;;;;;;5.32;54.64;97498.97;10460155;28;20056;-77
2021/05/04 02:06:31;;;;;;;6.40;4.18;;;;;;;5.31;55.65;97495.47;10445808;28;20059;-77
2021/05/04 02:11:52;;;;;;;5.18;3.92;;;;;;;5.29;55.25;97498.06;10445641;28;20067;-77
2021/05/04 02:17:12;;;;;;;5.40;3.83;;;;;;;5.30;55.54;97479.41;10445725;28;20384;-77
2021/05/04 02:22:34;;;;;;;4.93;3.58;;;;;;;5.21;55.91;97472.50;10432375;28;20041;-77
2021/05/04 02:27:54;;;;;;;5.60;3.63;;;;;;;5.19;56.44;97469.53;10445547;28;20116;-77
2021/05/04 02:33:15;;;;;;;6.65;3.72;;;;;;;5.16;56.27;97456.84;10459128;28;20554;-77
2021/05/04 02:38:35;;;;;;;8.13;4.15;;;;;;;5.18;56.52;97448.69;10431110;28;20067;-77
2021/05/04 02:43:56;;;;;;;7.32;4.55;;;;;;;5.25;57.57;97441.66;10445339;28;20488;-77
2021/05/04 02:49:16;;;;;;;5.82;4.13;;;;;;;5.28;57.40;97432.94;10444615;28;20040;-77
2021/05/04 02:54:37;;;;;;;7.38;3.53;;;;;;;5.29;57.59;97415.03;10444428;28;20044;-77
2021/05/04 02:59:57;;;;;;;5.53;4.22;;;;;;;5.29;57.24;97415.03;10444012;28;20052;-78
2021/05/04 03:05:18;;;;;;;7.00;4.18;;;;;;;5.32;57.19;97399.34;10416421;28;20523;-77
2021/05/04 03:10:39;;;;;;;6.45;3.92;;;;;;;5.30;57.00;97402.66;10458040;28;20115;-77
2021/05/04 03:16:00;;;;;;;5.57;4.03;;;;;;;5.26;57.37;97401.59;10443990;28;20059;-77
2021/05/04 03:21:20;;;;;;;4.93;4.10;;;;;;;5.18;57.60;97388.56;10458094;28;20396;-77
2021/05/04 03:26:41;;;;;;;5.75;3.72;;;;;;;5.12;57.99;97385.31;10443644;28;20048;-77
2021/05/04 03:32:01;;;;;;;6.50;4.10;;;;;;;5.12;58.14;97379.78;10443558;28;20045;-77
2021/05/04 03:37:22;;;;;;;7.75;4.40;;;;;;;5.12;58.74;97365.94;10443481;28;20064;-77
2021/05/04 03:42:43;;;;;;;8.23;4.03;;;;;;;5.17;59.27;97361.47;10443519;28;20045;-77
2021/05/04 03:48:04;;;;;;;6.95;4.10;;;;;;;5.29;58.70;97348.59;10456413;28;20041;-77
2021/05/04 03:53:25;;;;;;;5.13;3.60;;;;;;;5.36;58.79;97344.31;10442098;28;20045;-77
2021/05/04 03:58:45;;;;;;;5.15;3.67;;;;;;;5.44;57.90;97340.16;10443404;28;20415;-77
2021/05/04 04:04:06;;;;;;;4.85;3.72;;;;;;;5.49;58.74;97330.13;10449839;28;20056;-77
2021/05/04 04:09:26;;;;;;;5.68;3.67;;;;;;;5.57;58.60;97330.78;10424080;28;20383;-77
2021/05/04 04:14:47;;;;;;;5.78;3.80;;;;;;;5.66;58.88;97316.28;10396535;28;20472;-77
2021/05/04 04:20:08;;;;;;;8.65;4.05;;;;;;;5.84;58.55;97307.94;10437202;28;20040;-77
2021/05/04 04:25:28;;;;;;;5.78;4.28;;;;;;;6.05;58.18;97311.00;10477419;28;20047;-76
2021/05/04 04:30:49;;;;;;;6.25;4.13;;;;;;;6.21;57.58;97292.88;10491925;28;20059;-77
2021/05/04 04:36:09;;;;;;;6.50;3.80;;;;;;;6.39;57.51;97293.53;10491353;28;20059;-76
2021/05/04 04:41:30;;;;;;;4.90;3.60;;;;;;;6.57;57.64;97281.06;10462924;28;20044;-76
2021/05/04 04:46:50;;;;;;;6.88;4.03;;;;;;;6.94;57.38;97271.91;10476907;28;20403;-77
2021/05/04 04:52:11;;;;;;;5.00;3.58;;;;;;;7.59;56.65;97255.13;10490573;28;20388;-76
2021/05/04 04:57:32;;;;;;;5.95;3.90;;;;;;;8.14;55.03;97253.41;10460735;28;20475;-77
2021/05/04 05:02:53;;;;;;;7.35;4.13;;;;;;;8.60;53.77;97246.78;10488566;28;20059;-76
2021/05/04 05:08:13;;;;;;;5.10;3.95;;;;;;;8.76;52.19;97241.56;10488512;28;20044;-77
2021/05/04 05:13:34;;;;;;;5.15;4.15;;;;;;;8.97;52.71;97233.22;10461024;28;20044;-76
2021/05/04 05:18:54;;;;;;;6.95;4.05;;;;;;;9.40;52.20;97219.97;10488834;28;20086;-75
2021/05/04 05:24:15;;;;;;;5.10;3.85;;;;;;;10.22;51.23;97222.22;10487013;28;20106;-76
2021/05/04 05:29:35;;;;;;;6.43;4.18;;;;;;;11.11;47.12;97215.56;10473869;28;20387;-75
2021/05/04 05:34:56;;;;;;;5.93;4.00;;;;;;;15.48;50.77;97201.59;10473660;28;20045;-76
2021/05/04 05:40:16;;;;;;;4.22;3.63;;;;;;;20.18;36.75;97199.81;10459681;28;20581;-75
2021/05/04 05:45:37;;;;;;;3.58;2.85;;;;;;;23.04;34.70;97202.19;10459425;28;20102;-76
2021/05/04 05:50:57;;;;;;;4.15;2.70;;;;;;;26.46;27.99;97191.94;10486929;28;20390;-75
2021/05/04 05:56:18;;;;;;;3.75;2.97;;;;;;;26.57;22.35;97181.88;10472635;28;20063;-77
2021/05/04 06:01:38;;;;;;;4.40;2.42;;;;;;;26.17;20.82;97192.00;10472664;28;20048;-76
2021/05/04 06:06:59;;;;;;;3.90;2.80;;;;;;;24.57;20.94;97183.31;10472074;28;20044;-76
2021/05/04 06:12:20;;;;;;;4.78;2.70;;;;;;;22.94;21.06;97168.66;10486420;28;20044;-78
2021/05/04 06:17:41;;;;;;;4.32;2.97;;;;;;;19.73;23.85;97178.97;10470364;28;20047;-77
2021/05/04 06:23:02;;;;;;;3.78;3.05;;;;;;;17.22;26.28;97164.25;10457965;28;20048;-76
2021/05/04 06:28:23;;;;;;;4.45;3.30;;;;;;;15.77;29.37;97153.53;10454094;28;20047;-77
2021/05/04 06:33:43;;;;;;;4.15;3.00;;;;;;;14.82;30.66;97153.25;10466523;28;20049;-77
2021/05/04 06:39:05;;;;;;;4.88;3.47;;;;;;;14.26;32.67;97144.56;10467389;28;20040;-77
2021/05/04 06:44:25;;;;;;;4.45;3.28;;;;;;;14.32;33.87;97127.28;10457077;28;20048;-77
2021/05/04 06:49:46;;;;;;;4.30;3.25;;;;;;;14.99;34.12;97115.31;10484671;28;20090;-76
2021/05/04 06:55:07;;;;;;;4.95;3.10;;;;;;;16.32;32.52;97107.69;10456443;28;20063;-76
2021/05/04 07:00:28;;;;;;;5.10;2.92;;;;;;;17.38;31.35;97106.25;10484488;28;20041;-76
2021/05/04 07:05:48;;;;;;;5.05;2.75;;;;;;;17.58;30.84;97096.97;10469386;28;20210;-76
2021/05/04 07:11:09;;;;;;;3.17;2.75;;;;;;;17.60;30.10;97105.47;10473056;28;20065;-77
2021/05/04 07:16:30;;;;;;;4.45;3.03;;;;;;;16.90;30.55;97084.97;10444052;28;20041;-77
2021/05/04 07:21:52;;;;;;;5.38;2.70;;;;;;;15.85;31.73;97075.06;10497328;28;20127;-77
2021/05/04 07:27:12;;;;;;;5.07;2.75;;;;;;;14.84;32.90;97077.47;10469293;28;20072;-76
2021/05/04 07:32:33;;;;;;;3.58;2.67;;;;;;;14.04;34.31;97076.97;10428413;28;20407;-76
2021/05/04 07:37:55;;;;;;;5.15;2.80;;;;;;;13.62;34.96;97066.69;10458548;28;20102;-76
2021/05/04 07:43:17;;;;;;;4.50;2.17;;;;;;;13.52;36.12;97080.97;10428274;28;20045;-75
2021/05/04 07:48:38;;;;;;;5.40;2.17;;;;;;;13.44;36.75;97070.13;10440830;28;20052;-76
2021/05/04 07:53:59;;;;;;;3.95;2.15;;;;;;;13.41;36.68;97059.44;10427899;28;20183;-77
2021/05/04 07:59:19;;;;;;;5.10;2.13;;;;;;;13.46;36.78;97044.97;10428145;28;20052;-76
2021/05/04 08:04:40;;;;;;;2.85;2.33;;;;;;;13.56;37.09;97038.38;10441062;28;20078;-76
2021/05/04 08:10:00;;;;;;;4.15;2.50;;;;;;;13.59;37.34;97025.88;10427193;28;20041;-77
2021/05/04 08:15:22;;;;;;;4.90;1.92;;;;;;;13.71;37.36;97037.66;10413951;28;20045;-76
2021/05/04 08:20:54;;;;;;;4.55;1.98;;;;;;;13.81;37.14;97018.47;10399992;28;20041;-76
2021/05/04 08:26:14;;;;;;;3.78;1.83;;;;;;;13.72;37.60;97013.84;10401859;28;20049;-75
2021/05/04 08:31:35;;;;;;;4.00;2.10;;;;;;;13.78;37.71;96988.84;10399620;28;20042;-76
2021/05/04 08:37:02;;;;;;;3.00;1.75;;;;;;;13.85;37.36;96989.84;10374251;28;20041;-76
2021/05/04 08:42:22;;;;;;;2.92;2.20;;;;;;;14.06;37.42;96985.81;10399436;28;20054;-73
2021/05/04 08:47:49;;;;;;;3.13;1.60;;;;;;;14.04;37.60;96961.94;10412894;28;20054;-74
2021/05/04 08:53:09;;;;;;;6.30;2.10;;;;;;;14.40;37.54;96970.41;10387086;28;20045;-75
2021/05/04 08:58:31;;;;;;;2.13;1.90;;;;;;;14.20;37.37;96941.50;10389350;28;20468;-78
2021/05/04 09:04:26;;;;;;;2.95;2.00;;;;;;;14.14;38.09;96930.03;10410619;28;20057;-77
2021/05/04 09:10:19;;;;;;;3.72;2.00;;;;;;;14.09;38.18;96920.75;10498353;28;20041;-75
2021/05/04 09:21:09;;;;;;;2.58;2.00;;;;;;;14.40;38.01;96883.38;10406349;28;20041;-76
2021/05/04 09:26:35;;;;;;;2.75;1.83;;;;;;;14.79;38.14;96879.25;10393085;28;20045;-78
2021/05/04 09:32:32;;;;;;;3.05;1.65;;;;;;;16.66;35.69;96871.44;10406690;28;20049;-78
2021/05/04 09:37:52;;;;;;;2.55;1.70;;;;;;;17.15;34.13;96856.69;10392081;28;20049;-78
2021/05/04 09:43:23;;;;;;;2.72;1.60;;;;;;;17.42;34.27;96829.91;10388125;28;20413;-76
2021/05/04 09:48:44;;;;;;;3.63;1.35;;;;;;;18.53;33.13;96836.13;10388415;28;20041;-76
2021/05/04 09:54:10;;;;;;;3.53;1.70;;;;;;;19.11;31.49;96814.03;10372161;28;20045;-76
2021/05/04 09:59:45;;;;;;;2.22;1.27;;;;;;;19.84;29.93;96808.25;10387920;28;20046;-79
2021/05/04 10:05:14;;;;;;;3.10;0.95;;;;;;;20.63;28.82;96808.75;10386864;28;20492;-79
2021/05/04 10:10:34;;;;;;;8.73;1.05;;;;;;;22.20;23.00;96825.31;10417697;28;20052;-78
2021/05/04 10:15:56;;;;;;;4.47;1.00;;;;;;;22.99;20.80;96773.88;10403292;28;20491;-80
2021/05/04 10:21:16;;;;;;;3.22;0.60;;;;;;;26.23;17.64;96785.84;10403578;28;20041;-77
2021/05/04 10:26:37;;;;;;;5.10;0.60;;;;;;;29.85;16.67;96793.63;10402962;28;20045;-78
2021/05/04 10:31:59;;;;;;;3.63;0.52;;;;;;;33.17;13.66;96771.38;10402922;28;20048;-75
2021/05/04 10:37:22;;;;;;;2.50;0.37;;;;;;;32.65;11.99;96760.25;10416486;28;20042;-75
2021/05/04 10:42:44;;;;;;;3.92;0.65;;;;;;;29.19;13.43;96724.69;10415971;28;20099;-75
2021/05/04 10:48:07;;;;;;;2.07;0.47;;;;;;;25.88;15.85;96756.84;10402323;28;20447;-77
2021/05/04 10:53:49;;;;;;;1.70;0.50;;;;;;;24.70;17.36;96739.66;10402579;28;20050;-76
2021/05/04 10:59:37;;;;;;;1.95;0.65;;;;;;;24.01;17.86;96731.28;10416696;28;20069;-75
2021/05/04 11:04:59;;;;;;;2.80;0.60;;;;;;;23.03;18.52;96697.75;10418956;28;20443;-75
2021/05/04 11:10:24;;;;;;;3.08;0.70;;;;;;;21.28;19.56;96718.72;10402599;28;20052;-75
2021/05/04 11:15:44;;;;;;;;;;;;;;;20.34;21.07;96714.09;10402376;28;20045;-76
2021/05/04 11:21:45;;;;;;;1.80;0.55;;;;;;;20.28;21.90;96706.25;10415079;28;19920;-75
2021/05/04 11:27:35;;;;;;;3.03;0.57;;;;;;;20.15;21.85;96711.00;10396919;28;20106;-75
2021/05/04 11:32:59;;;;;;;3.75;0.80;;;;;;;20.61;21.67;96676.19;10387971;28;20500;-75
2021/05/04 11:38:20;;;;;;;1.83;0.50;;;;;;;20.32;21.75;96688.56;10400957;28;20056;-74
2021/05/04 11:43:47;;;;;;;2.38;0.60;;;;;;;20.69;21.72;96676.28;10400742;28;20064;-75
2021/05/04 11:49:08;;;;;;;3.42;0.45;;;;;;;20.72;21.58;96685.50;10386789;28;20041;-77
2021/05/04 11:54:32;;;;;;;4.40;0.70;;;;;;;19.89;22.34;96694.38;10414228;28;20060;-76
2021/05/04 11:59:53;;;;;;;3.30;0.70;;;;;;;19.84;22.40;96678.00;10402179;28;20041;-76
2021/05/04 12:05:23;;;;;;;6.05;0.80;;;;;;;20.24;22.39;96661.56;10385859;28;20472;-76
2021/05/04 12:10:48;;;;;;;2.60;0.60;;;;;;;21.22;21.61;96656.94;10388570;28;20053;-75
2021/05/04 12:16:29;;;;;;;1.60;0.55;;;;;;;21.62;20.95;96639.53;10402710;28;20041;-75
2021/05/04 12:21:53;;;;;;;8.10;0.80;;;;;;;22.07;20.93;96639.09;10400138;28;20045;-75
2021/05/04 12:27:17;;;;;;;3.08;0.40;;;;;;;22.07;20.37;96639.09;10385709;28;20052;-75
2021/05/04 12:32:41;;;;;;;2.45;0.50;;;;;;;22.25;20.80;96634.22;10416279;28;20205;-75
2021/05/04 12:38:22;;;;;;;2.50;0.60;;;;;;;22.80;20.72;96622.28;10407894;28;20060;-75
2021/05/04 12:49:45;;;;;;;4.88;1.08;;;;;;;21.83;20.93;96620.50;10433757;28;20048;-75
2021/05/04 12:55:12;;;;;;;1.90;0.50;;;;;;;21.35;21.73;96595.34;10395004;28;20172;-75
2021/05/04 13:00:33;;;;;;;2.33;0.60;;;;;;;21.04;21.96;96595.09;10427713;28;20041;-75
2021/05/04 13:06:17;;;;;;;3.72;0.57;;;;;;;21.11;22.49;96573.84;10446895;28;20053;-76
2021/05/04 13:11:51;;;;;;;1.88;0.60;;;;;;;21.25;22.90;96587.44;10447877;28;20041;-77
2021/05/04 13:18:03;;;;;;;3.05;0.60;;;;;;;20.84;22.82;96558.75;10447928;28;20045;-75
2021/05/04 13:34:49;;;;;;;4.18;0.50;;;;;;;19.85;24.03;96557.69;10447356;28;20037;-75
2021/05/04 13:51:16;;;;;;;2.40;0.47;;;;;;;19.47;25.54;96552.19;10450451;28;20049;-76
2021/05/04 13:56:36;;;;;;;1.40;0.50;;;;;;;19.50;25.01;96560.03;10445085;28;20045;-76
2021/05/04 14:02:08;;;;;;;3.17;0.68;;;;;;;18.77;25.80;96561.75;10430928;28;20052;-77
2021/05/04 14:30:25;;;;;;;1.40;0.55;;;;;;;17.58;28.32;96546.75;10438684;28;20057;-75
2021/05/04 14:58:57;;;;;;;2.83;1.05;;;;;;;17.26;29.77;96552.38;10462613;28;20053;-77
2021/05/04 15:04:18;;;;;;;2.92;0.60;;;;;;;16.97;29.98;96534.09;10459085;28;20064;-75
2021/05/04 15:09:43;;;;;;;2.58;0.85;;;;;;;16.77;30.51;96540.69;10443716;28;20040;-75
2021/05/04 15:15:06;;;;;;;2.83;0.68;;;;;;;16.79;31.36;96535.13;10442935;28;20041;-76
2021/05/04 15:26:06;;;;;;;5.90;0.63;;;;;;;16.84;31.12;96539.47;10433091;28;20373;-74
2021/05/04 15:31:31;;;;;;;3.28;0.75;;;;;;;16.85;31.40;96532.44;10442492;28;20041;-74
2021/05/04 15:36:51;;;;;;;5.37;1.03;;;;;;;16.76;31.50;96530.81;10443032;28;20411;-77
2021/05/04 15:42:12;;;;;;;3.25;0.75;;;;;;;16.62;31.97;96524.81;10442218;28;20052;-77
2021/05/04 15:48:23;;;;;;;1.63;0.70;;;;;;;16.54;32.24;96518.97;10442380;28;20733;-78
2021/05/04 15:53:52;;;;;;;1.35;0.77;;;;;;;16.94;32.28;96496.00;10442749;28;20404;-75
2021/05/04 16:10:32;;;;;;;3.92;0.80;;;;;;;17.19;32.73;96508.53;10440896;28;20041;-74
2021/05/04 16:15:52;;;;;;;2.20;0.70;;;;;;;17.08;33.39;96510.41;10449124;28;20498;-75
2021/05/04 16:27:22;;;;;;;3.17;0.80;;;;;;;16.41;34.71;96520.78;10461657;28;20068;-72
2021/05/04 16:32:42;;;;;;;1.70;0.93;;;;;;;15.98;35.73;96516.84;10463159;28;20045;-72
2021/05/04 16:38:02;;;;;;;2.85;0.90;;;;;;;15.84;36.16;96532.63;10448887;28;20044;-72
2021/05/04 16:43:23;;;;;;;2.33;0.85;;;;;;;15.79;37.44;96539.50;10462381;28;20045;-73
2021/05/04 16:48:43;;;;;;;3.65;0.80;;;;;;;15.61;37.11;96529.19;10448216;28;20111;-74
2021/05/04 16:54:04;;;;;;;2.08;1.10;;;;;;;15.49;38.00;96522.47;10448271;28;20045;-74
2021/05/04 16:59:25;;;;;;;2.30;1.20;;;;;;;15.50;38.01;96530.25;10461719;28;20041;-73
2021/05/04 17:04:46;;;;;;;4.05;0.90;;;;;;;15.48;38.07;96510.50;10447461;28;20120;-73
2021/05/04 17:15:31;;;;;;;1.50;0.70;;;;;;;15.11;38.96;96543.16;10461143;28;20491;-73
2021/05/04 17:20:51;;;;;;;2.92;0.93;;;;;;;15.07;38.79;96548.66;10447365;28;20049;-75
2021/05/04 17:26:12;;;;;;;1.88;1.00;;;;;;;15.01;39.02;96548.47;10433133;28;20045;-75
2021/05/04 17:31:33;;;;;;;4.30;0.77;;;;;;;14.88;39.40;96555.06;10446885;28;20087;-75
2021/05/04 17:36:54;;;;;;;4.07;0.90;;;;;;;14.70;39.63;96582.56;10460201;28;20499;-73
2021/05/04 17:42:15;;;;;;;3.50;0.98;;;;;;;14.55;39.52;96576.47;10446143;28;20040;-73
2021/05/04 17:47:35;;;;;;;2.40;0.75;;;;;;;14.47;40.62;96579.00;10446029;28;20052;-74
2021/05/04 17:52:56;;;;;;;2.55;0.73;;;;;;;14.29;40.55;96592.41;10440868;28;20040;-74
2021/05/04 17:58:18;;;;;;;3.03;0.70;;;;;;;14.10;41.66;96593.16;10539262;28;20384;-77
2021/05/04 18:03:42;;;;;;;2.22;0.95;;;;;;;13.96;41.43;96596.88;10508479;28;20048;-75
2021/05/04 18:09:04;;;;;;;2.95;1.10;;;;;;;13.75;42.28;96603.81;10501376;28;20051;-76
2021/05/04 18:25:09;;;;;;;2.45;0.90;;;;;;;13.44;43.42;96604.06;10500654;28;20097;-75
2021/05/04 18:30:58;;;;;;;3.95;1.20;;;;;;;13.33;43.92;96600.16;10518378;28;20067;-75
2021/05/04 18:54:58;;;;;;;3.60;0.80;;;;;;;12.83;44.50;96607.22;10514978;28;20050;-76
2021/05/04 20:11:35;;;;;;;2.00;0.77;;;;;;;12.03;49.88;96606.00;10511819;28;20040;-75
2021/05/04 20:16:57;;;;;;;2.72;0.93;;;;;;;12.07;49.80;96595.00;10510380;28;20040;-76
2021/05/04 20:22:18;;;;;;;2.40;0.95;;;;;;;12.04;50.15;96585.06;10497278;28;20479;-76
2021/05/04 20:27:38;;;;;;;2.95;0.80;;;;;;;11.98;50.62;96582.03;10524099;28;20048;-75
2021/05/04 20:32:59;;;;;;;1.33;0.70;;;;;;;11.94;51.23;96576.94;10496300;28;20422;-75
2021/05/04 20:38:20;;;;;;;2.58;0.75;;;;;;;11.91;50.78;96592.22;10509840;28;20044;-75
2021/05/04 20:43:41;;;;;;;2.65;0.77;;;;;;;11.82;51.44;96570.84;10523987;28;20044;-76
2021/05/04 20:49:02;;;;;;;2.03;0.75;;;;;;;11.78;51.58;96570.66;10509864;28;20395;-77
2021/05/04 20:54:23;;;;;;;2.45;0.75;;;;;;;11.73;51.61;96566.94;10513866;28;20395;-77
2021/05/04 20:59:44;;;;;;;3.90;0.65;;;;;;;11.74;51.46;96559.97;10530972;28;20039;-76
2021/05/04 21:05:05;;;;;;;1.00;0.50;;;;;;;11.58;52.54;96564.13;10502747;28;20052;-75
2021/05/04 21:11:28;;;;;;;1.50;0.60;;;;;;;11.43;52.43;96571.16;10516426;28;20051;-76
2021/05/04 21:16:08;;;;;;;1.30;0.63;;;;;;;11.41;52.98;96562.69;10520978;28;20056;-75
2021/05/04 21:21:38;;;;;;;1.23;0.70;;;;;;;11.40;53.09;96566.84;10516563;28;20040;-75
2021/05/04 21:32:22;;;;;;;2.95;0.93;;;;;;;11.35;53.54;96560.34;10502961;28;20043;-75
2021/05/04 21:37:44;;;;;;;1.70;0.82;;;;;;;11.47;54.05;96560.16;10515830;28;20394;-74
2021/05/04 21:43:04;;;;;;;1.10;0.68;;;;;;;11.57;53.73;96557.09;10515715;28;20399;-75
2021/05/04 21:48:25;;;;;;;3.83;0.77;;;;;;;11.64;53.19;96551.16;10529161;28;20123;-75
2021/05/04 21:53:45;;;;;;;2.53;1.13;;;;;;;11.65;53.73;96532.31;10514809;28;20055;-76
2021/05/04 21:59:05;;;;;;;3.38;0.63;;;;;;;11.62;53.62;96531.50;10514830;28;20036;-76
2021/05/04 22:04:26;;;;;;;1.38;0.73;;;;;;;11.63;53.97;96521.75;10513806;28;20079;-75
2021/05/04 22:09:47;;;;;;;1.40;0.75;;;;;;;11.66;53.91;96534.47;10500410;28;20097;-75
2021/05/04 22:37:47;;;;;;;1.67;0.60;;;;;;;11.70;54.09;96500.41;10518444;28;20040;-76
2021/05/04 23:16:28;;;;;;;3.22;0.90;;;;;;;11.49;55.69;96492.50;10505308;28;20467;-75
2021/05/04 23:21:49;;;;;;;2.80;0.93;;;;;;;11.49;55.39;96501.59;10512276;28;20059;-76
2021/05/04 23:27:09;;;;;;;1.30;0.75;;;;;;;11.47;56.20;96477.06;10511303;28;20040;-76
2021/05/04 23:32:30;;;;;;;2.92;1.00;;;;;;;11.49;56.41;96493.22;10511286;28;20044;-75
2021/05/04 23:37:51;;;;;;;1.13;0.70;;;;;;;11.50;56.17;96496.72;10511086;28;20044;-75
2021/05/04 23:43:11;;;;;;;1.98;0.90;;;;;;;11.47;57.50;96509.88;10510936;28;20047;-75
2021/05/04 23:48:31;;;;;;;2.75;0.73;;;;;;;11.38;57.91;96510.84;10511047;28;20055;-75
2021/05/04 23:53:52;;;;;;;1.45;0.73;;;;;;;11.20;60.60;96512.84;10510868;28;20062;-76
2021/05/04 23:59:12;;;;;;;2.53;0.95;;;;;;;10.95;60.53;96511.72;10510716;28;20040;-76
